Latest Coastal Weather Observations for South Johnstone

IDQ60701

Issued at 11:51 pm EST Monday 25 May 2015 (issued every 10 minutes, with the page automatically refreshed every 10 minutes)

About coastal observations | Map of coastal stations | Coastal observations for QLD | Marine services | Other Formats
Station Details ID: 032037 Name: SOUTH JOHNSTONE EXP STN Lat: -17.61 Lon: 146.00 Height: 18.3 m
Data from the previous 72 hours. | See also: Recent months at South Johnstone
Date/Time
EST
Temp

°C
Wind Pressure Rain
since 9am
mm
Weather Cloud Vis
km
Sea
Height
m
Swell
Dir
 
Speed
knots
Gust
knots
hPa Trend Height
m
Period
s
Dir
25/11:30pm 22.4 S 3 5 1022.1 - 0.2 - - - - - - -
25/11:00pm 22.6 S 5 7 1022.3 - 0.2 - - - - - - -
25/10:30pm 22.3 S 4 7 1022.5 - 0.2 - - - - - - -
25/10:00pm 22.4 S 3 5 1022.4 - 0.2 - - - - - - -
25/09:30pm 22.5 S 3 6 1022.2 - 0.2 - - - - - - -
25/09:00pm 22.7 S 4 6 1022.0 - 0.2 - - - - - - -
25/08:30pm 22.8 S 5 9 1022.0 - 0.2 - - - - - - -
25/08:00pm 22.3 S 4 7 1021.7 - 0.2 - - - - - - -
25/07:30pm 23.3 S 7 13 1021.4 - 0.0 - - - - - - -
25/07:00pm 23.6 S 6 11 1021.1 - 0.0 - - - - - - -
25/06:30pm 23.4 S 6 9 1020.8 - 0.0 - - - - - - -
25/06:00pm 23.5 S 7 10 1020.6 - 0.0 - - - - - - -
25/05:30pm 23.8 S 7 10 1020.6 - 0.0 - - - - - - -
25/05:00pm 24.0 S 6 9 1020.5 - 0.0 - - - - - - -
25/04:30pm 24.2 S 6 10 1020.3 - 0.0 - - - - - - -
25/04:00pm 24.1 SSE 7 11 1020.3 - 0.0 - - - - - - -
25/03:30pm 24.7 SE 9 14 1020.2 - 0.0 - - - - - - -
25/03:00pm 25.0 SE 10 15 1020.3 - 0.0 - - - - - - -
25/02:30pm 25.2 SE 9 14 1020.4 - 0.0 - - - - - - -
25/02:00pm 25.1 SE 11 17 1020.6 - 0.0 - - - - - - -
25/01:30pm 25.4 SE 10 16 1021.0 - 0.0 - - - - - - -
25/01:00pm 25.3 SE 12 16 1021.4 - 0.0 - - - - - - -
25/12:30pm 25.5 SE 12 19 1021.8 - 0.0 - - - - - - -
25/12:00pm 25.4 ESE 10 16 1022.0 - 0.0 - - - - - - -
25/11:30am 25.3 SE 11 18 1022.3 - 0.0 - - - - - - -
25/11:00am 25.1 SE 10 14 1022.6 - 0.0 - - - - - - -
25/10:30am 24.5 ESE 11 19 1022.9 - 0.0 - - - - - - -
25/10:00am 25.1 SE 10 17 1023.2 - 0.0 - - - - - - -
25/09:30am 24.3 SE 8 12 1023.2 - 0.0 - - - - - - -
25/09:00am 24.1 SE 7 11 1022.8 - 13.6 - - - - - - -
25/08:30am 23.8 SE 7 11 1022.6 - 13.6 - - - - - - -
25/08:00am 23.3 ESE 6 12 1022.2 - 13.6 - - - - - - -
25/07:30am 22.6 SE 4 7 1022.0 - 13.6 - - - - - - -
25/07:00am 22.1 SE 6 10 1021.8 - 13.6 - - - - - - -
25/06:30am 21.7 SE 5 7 1021.4 - 13.6 - - - - - - -
25/06:00am 21.6 ESE 4 6 1020.9 - 13.6 - - - - - - -
25/05:30am 21.7 SSW 3 5 1020.5 - 13.2 - - - - - - -
25/05:00am 21.6 SE 5 7 1020.6 - 12.0 - - - - - - -
25/04:30am 21.6 S 5 8 1020.2 - 7.8 - - - - - - -
25/04:00am 21.6 SSE 7 10 1020.3 - 5.6 - - - - - - -
25/03:30am 21.7 ESE 2 5 1020.3 - 4.8 - - - - - - -
25/03:00am 22.1 S 6 9 1020.1 - 4.4 - - - - - - -
25/02:30am 21.6 S 8 14 1020.6 - 4.4 - - - - - - -
25/02:00am 22.0 SE 7 12 1020.9 - 4.4 - - - - - - -
25/01:30am 21.6 SSE 6 11 1020.9 - 4.2 - - - - - - -
25/01:00am 22.1 SE 7 11 1021.1 - 4.2 - - - - - - -
25/12:30am 21.7 SSE 5 8 1021.1 - 4.2 - - - - - - -
25/12:00am 21.8 ESE 1 5 1021.0 - 4.0 - - - - - - -
 
Date/Time
EST
Temp

°C
Wind Pressure Rain
since 9am
mm
Weather Cloud Vis
km
Sea
Height
m
Swell
Dir
 
Speed
knots
Gust
knots
hPa Trend Height
m
Period
s
Dir
24/11:30pm 21.8 SE 5 10 1021.2 - 3.6 - - - - - - -
24/11:00pm 21.8 NNE 3 12 1021.3 - 2.0 - - - - - - -
24/10:30pm 21.8 SSW 1 6 1021.2 - 0.2 - - - - - - -
24/10:00pm 21.6 W 1 3 1021.1 - 0.2 - - - - - - -
24/09:30pm 22.1 S 5 9 1021.2 - 0.2 - - - - - - -
24/09:00pm 21.9 S 5 12 1021.0 - 0.0 - - - - - - -
24/08:30pm 21.4 CALM 0 0 1021.1 - 0.0 - - - - - - -
24/08:00pm 21.4 CALM 0 0 1021.0 - 0.0 - - - - - - -
24/07:30pm 22.3 S 3 6 1020.8 - 0.0 - - - - - - -
24/07:00pm 21.3 SE 1 3 1020.5 - 0.0 - - - - - - -
24/06:30pm 21.7 SSE 2 4 1020.3 - 0.0 - - - - - - -
24/06:00pm 22.7 S 6 8 1019.8 - 0.0 - - - - - - -
24/05:30pm 23.2 S 4 6 1020.0 - 0.0 - - - - - - -
24/05:00pm 23.4 S 5 7 1019.6 - 0.0 - - - - - - -
24/04:30pm 24.1 S 7 11 1019.3 - 0.0 - - - - - - -
24/04:00pm 24.7 S 7 11 1018.9 - 0.0 - - - - - - -
24/03:30pm 24.9 SSE 8 13 1018.9 - 0.0 - - - - - - -
24/03:00pm 25.2 SSE 8 12 1018.6 - 0.0 - - - - - - -
24/02:30pm 25.2 SE 8 12 1018.7 - 0.0 - - - - - - -
24/02:00pm 25.1 SSE 8 14 1018.9 - 0.0 - - - - - - -
24/01:30pm 25.2 SSE 8 12 1019.0 - 0.0 - - - - - - -
24/01:00pm 25.8 SSE 7 14 1019.2 - 0.0 - - - - - - -
24/12:30pm 24.6 S 7 11 1019.7 - 0.0 - - - - - - -
24/12:00pm 24.6 S 8 12 1020.3 - 0.0 - - - - - - -
24/11:30am 24.3 S 7 11 1020.7 - 0.0 - - - - - - -
24/11:00am 24.2 S 9 15 1020.9 - 0.0 - - - - - - -
24/10:30am 23.6 S 8 12 1021.2 - 0.0 - - - - - - -
24/10:00am 22.3 S 10 12 1021.5 - 0.0 - - - - - - -
24/09:30am 21.2 WSW 3 5 1021.5 - 0.0 - - - - - - -
24/09:00am 19.1 WSW 3 5 1021.2 - 0.0 - - - - - - -
24/08:30am 18.6 CALM 0 4 1020.9 - 0.0 - - - - - - -
24/08:00am 16.1 WSW 1 4 1020.6 - 0.0 - - - - - - -
24/07:30am 15.2 N 1 4 1020.5 - 0.0 - - - - - - -
24/07:00am 14.5 NW 3 5 1020.0 - 0.0 - - - - - - -
24/06:30am 14.1 WNW 1 3 1019.8 - 0.0 - - - - - - -
24/06:00am 13.9 W 5 7 1019.4 - 0.0 - - - - - - -
24/05:30am 13.9 W 5 8 1019.4 - 0.0 - - - - - - -
24/05:00am 13.8 W 4 7 1019.3 - 0.0 - - - - - - -
24/04:30am 13.9 W 4 9 1019.3 - 0.0 - - - - - - -
24/04:00am 14.0 W 2 6 1019.1 - 0.0 - - - - - - -
24/03:30am 14.1 W 4 7 1019.2 - 0.0 - - - - - - -
24/03:00am 14.0 W 2 6 1019.2 - 0.0 - - - - - - -
24/02:30am 14.0 WNW 3 5 1019.4 - 0.0 - - - - - - -
24/02:00am 14.1 WNW 3 5 1019.6 - 0.0 - - - - - - -
24/01:30am 14.1 WNW 4 6 1019.7 - 0.0 - - - - - - -
24/01:00am 14.4 WNW 3 5 1019.7 - 0.0 - - - - - - -
24/12:30am 14.7 W 2 6 1019.9 - 0.0 - - - - - - -
24/12:00am 14.8 W 4 6 1019.9 - 0.0 - - - - - - -
 
Date/Time
EST
Temp

°C
Wind Pressure Rain
since 9am
mm
Weather Cloud Vis
km
Sea
Height
m
Swell
Dir
 
Speed
knots
Gust
knots
hPa Trend Height
m
Period
s
Dir
23/11:30pm 14.9 WNW 3 5 1020.2 - 0.0 - - - - - - -
23/11:00pm 14.9 WNW 5 6 1020.3 - 0.0 - - - - - - -
23/10:30pm 15.2 WNW 4 6 1020.4 - 0.0 - - - - - - -
23/10:00pm 15.3 WNW 3 5 1020.5 - 0.0 - - - - - - -
23/09:30pm 15.7 WNW 3 4 1020.5 - 0.0 - - - - - - -
23/09:00pm 16.0 W 2 4 1020.4 - 0.0 - - - - - - -
23/08:30pm 16.3 W 5 9 1020.5 - 0.0 - - - - - - -
23/08:00pm 16.6 W 3 6 1020.3 - 0.0 - - - - - - -
23/07:30pm 17.1 WSW 6 7 1020.1 - 0.0 - - - - - - -
23/07:00pm 18.1 SW 4 8 1019.9 - 0.0 - - - - - - -
23/06:30pm 19.8 SSW 4 6 1019.6 - 0.0 - - - - - - -
23/06:00pm 20.4 SSW 3 5 1019.2 - 0.0 - - - - - - -
23/05:30pm 21.0 SSW 2 4 1018.9 - 0.0 - - - - - - -
23/05:00pm 21.5 SSE 4 7 1018.8 - 0.0 - - - - - - -
23/04:30pm 21.8 SSE 7 12 1018.5 - 0.0 - - - - - - -
23/04:00pm 21.9 SE 7 12 1018.3 - 0.0 - - - - - - -
23/03:30pm 22.2 SSE 8 14 1018.2 - 0.0 - - - - - - -
23/03:00pm 22.4 SE 8 12 1018.0 - 0.0 - - - - - - -
23/02:30pm 22.7 SSE 9 15 1018.1 - 0.0 - - - - - - -
23/02:00pm 23.2 SSE 8 12 1018.2 - 0.0 - - - - - - -
23/01:30pm 22.9 SSE 9 17 1018.5 - 0.0 - - - - - - -
23/01:00pm 23.0 SSE 9 14 1018.7 - 0.0 - - - - - - -
23/12:30pm 23.1 S 8 13 1019.1 - 0.0 - - - - - - -
23/12:00pm 23.4 S 10 15 1019.3 - 0.0 - - - - - - -
23/11:30am 24.1 SSE 9 17 1019.6 - 0.0 - - - - - - -
23/11:00am 23.4 SSE 10 13 1019.9 - 0.0 - - - - - - -
23/10:30am 23.3 S 9 15 1020.0 - 0.0 - - - - - - -
23/10:00am 22.6 S 7 13 1020.3 - 0.0 - - - - - - -
23/09:30am 22.2 S 7 10 1020.2 - 0.0 - - - - - - -
23/09:00am 22.3 SSW 6 9 1019.9 - 0.0 - - - - - - -
23/08:30am 19.1 WSW 6 9 1019.9 - 0.0 - - - - - - -
23/08:00am 17.6 WSW 7 10 1019.6 - 0.0 - - - - - - -
23/07:30am 16.6 WSW 6 7 1019.4 - 0.0 - - - - - - -
23/07:00am 15.8 WNW 3 5 1019.0 - 0.0 - - - - - - -
23/06:30am 16.1 WNW 2 4 1018.5 - 0.0 - - - - - - -
23/06:00am 16.4 W 2 4 1018.1 - 0.0 - - - - - - -
23/05:30am 16.6 SW 1 4 1017.8 - 0.0 - - - - - - -
23/05:00am 16.8 WNW 2 7 1017.6 - 0.0 - - - - - - -
23/04:30am 17.0 WSW 2 4 1017.4 - 0.0 - - - - - - -
23/04:00am 17.2 WSW 6 9 1017.3 - 0.0 - - - - - - -
23/03:30am 17.7 W 3 4 1017.4 - 0.0 - - - - - - -
23/03:00am 17.8 NNW 1 5 1017.2 - 0.0 - - - - - - -
23/02:30am 18.1 W 2 4 1017.3 - 0.0 - - - - - - -
23/02:00am 18.1 W 3 6 1017.3 - 0.0 - - - - - - -
23/01:30am 18.0 WNW 2 5 1017.4 - 0.0 - - - - - - -
23/01:00am 18.2 WNW 3 5 1017.4 - 0.0 - - - - - - -
23/12:30am 18.3 W 1 5 1017.6 - 0.0 - - - - - - -
23/12:00am 18.7 NW 3 5 1017.8 - 0.0 - - - - - - -

Other Formats:

Comma delimited format used in spreadsheet applications
http://www.bom.gov.au/fwo/IDQ60701/IDQ60701.95292.axf

JavaScript Object Notation format (JSON) in row-major order
http://www.bom.gov.au/fwo/IDQ60701/IDQ60701.95292.json